Terminal Aerodrome Forecast
Issued by NWS Sioux Falls, SD

Home | Current Version | Previous Version | Graphics & Text | Print | Product List | Glossary On
Versions: 1 2 3 4 5 6 7 8 9 10 11 12 13 14 15 16 17 18 19
000
FTUS43 KFSD 150533
TAFFSD
TAF
KFSD 150533Z 1506/1606 08005KT P6SM SCT250
     FM151000 10004KT P6SM BKN080
     FM151200 10005KT P6SM BKN020
     FM151400 11005KT P6SM BKN035
     FM151600 11006KT P6SM BKN060
     FM160200 12009KT P6SM -SHRA VCTS OVC035CB=

USA.gov is the U.S. government's official web portal to all federal, state and local government web resources and services.